Time;durP1;ratioP1;P1;durP2;ratioP2;P2;SDS_P1;SDS_P2;PMS_P1;PMS_P2;Temp;Humidity;BMP_temperature;BMP_pressure;BME280_temperature;BME280_humidity;BME280_pressure;Samples;Min_cycle;Max_cycle;Signal;HPM_P1;HPM_P2
2021/03/29 00:00:54;;;;;;;6.88;3.22;;;179.30;1817.60;;;;;;5018692;28;20113;-74
2021/03/29 00:03:20;;;;;;;7.32;3.17;;;179.40;1817.60;;;;;;5066520;28;20082;-72
2021/03/29 00:05:46;;;;;;;8.38;3.40;;;179.70;1792.00;;;;;;5114446;28;20047;-70
2021/03/29 00:08:18;;;;;;;9.88;3.22;;;179.70;1792.00;;;;;;5109696;28;20023;-72
2021/03/29 00:10:46;;;;;;;9.00;3.72;;;179.60;1792.00;;;;;;5110414;28;20316;-70
2021/03/29 00:13:13;;;;;;;7.50;2.55;;;179.50;1817.60;;;;;;5108196;28;20042;-72
2021/03/29 00:15:45;;;;;;;6.68;3.00;;;179.60;1792.00;;;;;;5108559;28;20062;-73
2021/03/29 00:18:12;;;;;;;5.05;2.90;;;179.50;1817.60;;;;;;5106636;28;20027;-70
2021/03/29 00:20:41;;;;;;;7.35;3.20;;;179.50;1817.60;;;;;;5106916;28;20027;-72
2021/03/29 00:23:08;;;;;;;6.38;3.00;;;179.50;1817.60;;;;;;5106445;28;20024;-70
2021/03/29 00:25:34;;;;;;;6.07;2.88;;;179.60;1817.60;;;;;;5106910;28;20397;-70
2021/03/29 00:28:00;;;;;;;5.50;2.55;;;179.70;1792.00;;;;;;5104552;28;20031;-72
2021/03/29 00:30:35;;;;;;;6.53;2.70;;;179.80;1792.00;;;;;;5096336;28;20020;-70
2021/03/29 00:33:03;;;;;;;6.35;2.47;;;180.00;1766.40;;;;;;5096125;28;20380;-71
2021/03/29 00:35:30;;;;;;;5.65;2.97;;;179.70;1792.00;;;;;;5108356;28;20026;-70
2021/03/29 00:37:58;;;;;;;6.70;3.42;;;179.70;1792.00;;;;;;5106997;28;20024;-72
2021/03/29 00:40:26;;;;;;;8.02;2.95;;;179.60;1817.60;;;;;;5107877;28;20084;-73
2021/03/29 00:43:00;;;;;;;7.70;3.25;;;179.50;1817.60;;;;;;5107557;28;20340;-69
2021/03/29 00:45:27;;;;;;;6.75;2.45;;;179.40;1843.20;;;;;;5107721;28;20035;-68
2021/03/29 00:47:54;;;;;;;4.53;2.30;;;179.40;1843.20;;;;;;5106600;28;20460;-70
2021/03/29 00:50:43;;;;;;;5.60;2.53;;;179.40;1843.20;;;;;;5105084;28;20047;-70
2021/03/29 00:53:11;;;;;;;8.65;2.67;;;179.30;1843.20;;;;;;5097208;28;20081;-71
2021/03/29 00:55:40;;;;;;;6.20;3.22;;;179.20;1868.80;;;;;;5097297;28;20122;-71
2021/03/29 00:58:06;;;;;;;7.88;2.78;;;179.20;1868.80;;;;;;5107413;28;20069;-68
2021/03/29 01:00:53;;;;;;;6.82;2.72;;;179.20;1868.80;;;;;;5112306;28;20035;-71
2021/03/29 01:03:22;;;;;;;6.65;2.53;;;179.20;1868.80;;;;;;5117588;28;20692;-72
2021/03/29 01:06:04;;;;;;;7.82;2.70;;;154.50;1868.80;;;;;;5116878;28;20293;-73
2021/03/29 01:08:33;;;;;;;7.68;2.70;;;179.20;1868.80;;;;;;5117840;28;20023;-71
2021/03/29 01:11:00;;;;;;;6.22;2.40;;;179.20;1868.80;;;;;;5118084;28;20068;-71
2021/03/29 01:13:27;;;;;;;6.50;2.33;;;179.30;1868.80;;;;;;5117523;28;20321;-73
2021/03/29 01:15:56;;;;;;;7.15;2.92;;;179.30;1868.80;;;;;;5117356;28;20394;-70
2021/03/29 01:18:24;;;;;;;9.88;2.47;;;179.30;1868.80;;;;;;5117416;28;20047;-71
2021/03/29 01:21:27;;;;;;;8.75;3.38;;;179.40;1868.80;;;;;;5117481;28;20092;-72
2021/03/29 01:23:58;;;;;;;9.13;3.10;;;179.50;1843.20;;;;;;5117092;28;20336;-73
2021/03/29 01:26:35;;;;;;;7.75;2.25;;;179.40;1843.20;;;;;;5116748;28;20015;-71
2021/03/29 01:29:01;;;;;;;7.70;2.88;;;179.40;1843.20;;;;;;5117437;28;20023;-70
2021/03/29 01:31:27;;;;;;;7.93;2.53;;;179.40;1843.20;;;;;;5117241;28;20030;-73
2021/03/29 01:33:55;;;;;;;5.07;2.38;;;179.40;1868.80;;;;;;5117092;28;20058;-72
2021/03/29 01:36:22;;;;;;;7.72;2.95;;;179.40;1868.80;;;;;;5117230;28;20118;-71
2021/03/29 01:38:49;;;;;;;5.15;3.10;;;179.50;1843.20;;;;;;5117033;28;20039;-73
2021/03/29 01:41:15;;;;;;;7.13;2.80;;;179.50;1843.20;;;;;;5116747;28;20019;-70
2021/03/29 01:43:42;;;;;;;5.03;2.47;;;179.40;1843.20;;;;;;5116475;28;20026;-71
2021/03/29 01:46:08;;;;;;;5.75;2.10;;;179.50;1843.20;;;;;;5107828;28;20050;-70
2021/03/29 01:48:34;;;;;;;5.13;2.53;;;179.50;1843.20;;;;;;5105933;28;20015;-70
2021/03/29 01:51:01;;;;;;;6.88;2.40;;;179.60;1843.20;;;;;;5107188;28;20016;-70
2021/03/29 01:53:30;;;;;;;8.85;2.80;;;179.50;1843.20;;;;;;5107813;28;20091;-71
2021/03/29 01:55:56;;;;;;;6.20;2.60;;;179.50;1843.20;;;;;;5116377;28;20069;-71
2021/03/29 01:58:22;;;;;;;5.32;2.38;;;179.50;1843.20;;;;;;5116462;28;20019;-72
2021/03/29 02:00:59;;;;;;;15.68;3.33;;;179.50;1843.20;;;;;;5113095;28;20068;-74
2021/03/29 02:03:26;;;;;;;6.55;2.70;;;179.40;1868.80;;;;;;5113875;28;20022;-71
2021/03/29 02:05:52;;;;;;;4.80;2.30;;;179.20;1868.80;;;;;;5116137;28;20419;-69
2021/03/29 02:08:20;;;;;;;7.70;2.40;;;154.50;1868.80;;;;;;5115439;28;20015;-70
2021/03/29 02:10:47;;;;;;;5.38;2.65;;;154.40;1894.40;;;;;;5115802;28;20016;-69
2021/03/29 02:13:18;;;;;;;5.70;2.30;;;154.40;1894.40;;;;;;5115696;28;20040;-71
2021/03/29 02:15:47;;;;;;;10.02;2.53;;;154.30;1894.40;;;;;;5110579;28;20036;-72
2021/03/29 02:18:23;;;;;;;7.72;2.35;;;154.30;1894.40;;;;;;5104174;28;20353;-74
2021/03/29 02:20:50;;;;;;;6.50;2.50;;;154.40;1894.40;;;;;;5116662;28;20080;-71
2021/03/29 02:23:19;;;;;;;5.07;2.75;;;154.30;1894.40;;;;;;5116331;28;20300;-71
2021/03/29 02:25:47;;;;;;;6.28;2.53;;;154.20;1894.40;;;;;;5113706;28;20111;-72
2021/03/29 02:28:13;;;;;;;6.83;2.50;;;154.20;1894.40;;;;;;5113110;28;20390;-72
2021/03/29 02:30:42;;;;;;;10.18;3.25;;;154.20;1894.40;;;;;;5118015;28;20331;-71
2021/03/29 02:33:11;;;;;;;6.88;3.63;;;154.00;1920.00;;;;;;5116155;28;20043;-71
2021/03/29 02:35:38;;;;;;;5.95;2.97;;;153.90;1945.60;;;;;;5117480;28;20020;-70
2021/03/29 02:38:10;;;;;;;6.57;2.45;;;154.00;1920.00;;;;;;5116962;28;20027;-72
2021/03/29 02:40:37;;;;;;;5.80;2.15;;;154.00;1894.40;;;;;;5106418;28;20042;-71
2021/03/29 02:43:04;;;;;;;7.22;2.55;;;154.00;1894.40;;;;;;5108031;28;20404;-74
2021/03/29 02:45:35;;;;;;;5.82;2.33;;;153.80;1920.00;;;;;;5112345;28;20023;-70
2021/03/29 02:48:06;;;;;;;5.05;2.42;;;153.70;1945.60;;;;;;5117508;28;20026;-70
2021/03/29 02:50:34;;;;;;;6.72;2.28;;;153.70;1945.60;;;;;;5105215;28;20011;-70
2021/03/29 02:53:04;;;;;;;7.95;3.92;;;153.60;1971.20;;;;;;5107676;28;20049;-69
2021/03/29 02:55:34;;;;;;;7.13;3.58;;;128.90;1971.20;;;;;;5107613;28;20031;-73
2021/03/29 02:58:02;;;;;;;7.72;3.05;;;128.80;1971.20;;;;;;5105700;28;20019;-70
2021/03/29 03:00:28;;;;;;;7.13;3.30;;;128.80;1996.80;;;;;;5107281;28;20048;-72
2021/03/29 03:02:57;;;;;;;8.55;3.97;;;128.70;1996.80;;;;;;5108222;28;20375;-72
2021/03/29 03:05:29;;;;;;;9.65;3.70;;;128.60;1996.80;;;;;;5106201;28;20016;-74
2021/03/29 03:07:56;;;;;;;8.57;3.15;;;128.60;1996.80;;;;;;5105867;28;20032;-71
2021/03/29 03:10:23;;;;;;;7.57;2.45;;;128.60;1996.80;;;;;;5117794;28;20026;-71
2021/03/29 03:12:50;;;;;;;9.25;3.05;;;128.60;1996.80;;;;;;5117240;28;20080;-73
2021/03/29 03:15:24;;;;;;;7.38;2.67;;;128.50;1996.80;;;;;;5117772;28;20023;-74
2021/03/29 03:17:52;;;;;;;6.70;2.47;;;128.40;2022.40;;;;;;5117558;28;20108;-72
2021/03/29 03:20:18;;;;;;;9.05;2.55;;;128.40;2022.40;;;;;;5117705;28;20023;-71
2021/03/29 03:22:58;;;;;;;11.02;2.63;;;128.60;2022.40;;;;;;5118034;28;20365;-72
2021/03/29 03:25:27;;;;;;;5.35;2.35;;;128.40;2022.40;;;;;;5117767;28;20152;-71
2021/03/29 03:27:54;;;;;;;8.52;2.75;;;128.20;2048.00;;;;;;5117650;28;20020;-72
2021/03/29 03:30:30;;;;;;;5.03;2.50;;;128.00;2048.00;;;;;;5117641;28;20023;-70
2021/03/29 03:32:57;;;;;;;6.32;2.17;;;128.00;2073.60;;;;;;5117278;28;20031;-72
2021/03/29 03:35:26;;;;;;;9.98;2.53;;;103.30;2048.00;;;;;;5117853;28;20103;-70
2021/03/29 03:37:59;;;;;;;4.57;2.17;;;128.10;2073.60;;;;;;5117626;28;20024;-70
2021/03/29 03:40:27;;;;;;;6.05;2.30;;;128.10;2073.60;;;;;;5117381;28;20020;-71
2021/03/29 03:42:58;;;;;;;8.30;2.95;;;128.10;2073.60;;;;;;5117794;28;20027;-73
2021/03/29 03:45:28;;;;;;;8.30;2.38;;;128.10;2073.60;;;;;;5117838;28;20081;-73
2021/03/29 03:47:55;;;;;;;6.95;2.42;;;128.10;2073.60;;;;;;5116960;28;20089;-72
2021/03/29 03:50:22;;;;;;;6.15;2.72;;;128.20;2048.00;;;;;;5117448;28;20016;-72
2021/03/29 03:52:49;;;;;;;6.35;2.25;;;128.10;2048.00;;;;;;5117055;28;20038;-73
2021/03/29 03:55:17;;;;;;;4.93;2.42;;;128.20;2048.00;;;;;;5117518;28;20409;-73
2021/03/29 03:57:43;;;;;;;6.18;2.45;;;128.20;2048.00;;;;;;5117139;28;20051;-70
2021/03/29 04:00:13;;;;;;;6.97;2.70;;;128.20;2073.60;;;;;;5117396;28;20019;-71
2021/03/29 04:02:39;;;;;;;8.70;3.38;;;128.20;2073.60;;;;;;5117368;28;20106;-73
2021/03/29 04:05:10;;;;;;;5.25;2.60;;;128.00;2073.60;;;;;;5117364;28;20026;-72
2021/03/29 04:07:35;;;;;;;7.35;2.88;;;103.30;2048.00;;;;;;5116413;28;20022;-70
2021/03/29 04:10:10;;;;;;;8.60;2.92;;;128.00;2073.60;;;;;;5117339;28;20020;-73
2021/03/29 04:12:36;;;;;;;6.80;2.65;;;103.30;2048.00;;;;;;5117145;28;20047;-72
2021/03/29 04:15:02;;;;;;;4.57;2.55;;;103.20;2048.00;;;;;;5117243;28;20027;-70
2021/03/29 04:17:28;;;;;;;7.35;2.40;;;103.20;2073.60;;;;;;5117491;28;20027;-72
2021/03/29 04:19:54;;;;;;;5.30;2.25;;;103.10;2073.60;;;;;;5117995;28;20404;-70
2021/03/29 04:22:20;;;;;;;6.75;2.90;;;102.90;2099.20;;;;;;5120905;28;20049;-73
2021/03/29 04:24:46;;;;;;;7.80;2.63;;;102.80;2099.20;;;;;;5120591;28;20031;-73
2021/03/29 04:27:11;;;;;;;6.82;2.42;;;102.90;2099.20;;;;;;5121091;28;20070;-72
2021/03/29 04:29:37;;;;;;;6.53;2.30;;;102.80;2099.20;;;;;;5120463;28;20102;-72
2021/03/29 04:32:03;;;;;;;9.55;2.83;;;102.80;2124.80;;;;;;5120659;28;20076;-70
2021/03/29 04:34:29;;;;;;;7.03;2.70;;;102.80;2124.80;;;;;;5120686;28;20418;-71
2021/03/29 04:36:55;;;;;;;7.32;2.72;;;102.70;2124.80;;;;;;5120399;28;20015;-72
2021/03/29 04:39:21;;;;;;;8.57;2.60;;;102.70;2124.80;;;;;;5120577;28;20297;-74
2021/03/29 04:41:47;;;;;;;7.40;3.00;;;102.70;2124.80;;;;;;5120264;28;20427;-70
2021/03/29 04:44:12;;;;;;;8.77;2.25;;;102.60;2150.40;;;;;;5120555;28;20352;-70
2021/03/29 04:46:38;;;;;;;8.68;2.67;;;102.70;2150.40;;;;;;5120465;28;20023;-73
2021/03/29 04:49:04;;;;;;;5.80;3.13;;;102.70;2150.40;;;;;;5120689;28;20031;-73
2021/03/29 04:51:30;;;;;;;5.47;2.28;;;102.70;2150.40;;;;;;5120085;28;20026;-72
2021/03/29 04:53:56;;;;;;;5.35;2.40;;;102.70;2150.40;;;;;;5120216;28;20059;-70
2021/03/29 04:56:23;;;;;;;6.47;2.30;;;102.70;2124.80;;;;;;5119627;28;20489;-72
2021/03/29 04:58:49;;;;;;;4.82;2.30;;;102.80;2124.80;;;;;;5119945;28;20045;-71
2021/03/29 05:01:14;;;;;;;5.22;2.33;;;102.80;2124.80;;;;;;5120169;28;20015;-69
2021/03/29 05:03:40;;;;;;;6.68;2.10;;;102.80;2124.80;;;;;;5119839;28;20034;-74
2021/03/29 05:06:06;;;;;;;7.80;2.70;;;102.80;2124.80;;;;;;5120085;28;20347;-73
2021/03/29 05:08:32;;;;;;;5.75;2.40;;;103.00;2099.20;;;;;;5119500;28;20026;-72
2021/03/29 05:10:57;;;;;;;6.38;2.28;;;103.10;2099.20;;;;;;5119984;28;20019;-70
2021/03/29 05:13:23;;;;;;;9.30;2.72;;;103.10;2099.20;;;;;;5119486;28;20047;-71
2021/03/29 05:15:49;;;;;;;6.88;2.47;;;103.20;2099.20;;;;;;5120190;28;20024;-71
2021/03/29 05:18:15;;;;;;;10.80;3.13;;;103.30;2099.20;;;;;;5119545;28;20050;-72
2021/03/29 05:20:40;;;;;;;7.95;3.42;;;128.00;2099.20;;;;;;5120134;28;20361;-70
2021/03/29 05:23:06;;;;;;;9.23;3.65;;;128.00;2099.20;;;;;;5119771;28;20027;-74
2021/03/29 05:25:32;;;;;;;6.15;3.15;;;128.10;2099.20;;;;;;5119771;28;20016;-71
2021/03/29 05:27:58;;;;;;;9.73;2.80;;;128.20;2099.20;;;;;;5119668;28;20424;-69
2021/03/29 05:30:24;;;;;;;6.22;3.03;;;128.10;2099.20;;;;;;5119869;28;20080;-70
2021/03/29 05:32:50;;;;;;;9.43;3.75;;;128.40;2073.60;;;;;;5118580;28;20027;-71
2021/03/29 05:35:15;;;;;;;11.02;4.15;;;128.50;2073.60;;;;;;5119357;28;20024;-71
2021/03/29 05:37:41;;;;;;;8.90;5.20;;;128.60;2073.60;;;;;;5119586;28;20069;-72
2021/03/29 05:40:08;;;;;;;17.27;3.83;;;128.60;2073.60;;;;;;5119157;28;20023;-72
2021/03/29 05:42:34;;;;;;;5.95;3.47;;;128.70;2048.00;;;;;;5118719;28;20023;-72
2021/03/29 05:45:10;;;;;;;16.85;8.63;;;128.70;2048.00;;;;;;5119284;28;20024;-70
2021/03/29 05:47:37;;;;;;;22.63;13.85;;;128.80;2048.00;;;;;;5119295;28;20015;-72
2021/03/29 05:50:10;;;;;;;25.90;14.10;;;153.80;2022.40;;;;;;5119495;28;20030;-72
2021/03/29 05:52:37;;;;;;;24.45;15.50;;;153.90;1996.80;;;;;;5119154;28;20028;-74
2021/03/29 05:55:05;;;;;;;12.23;7.85;;;154.00;1996.80;;;;;;5118190;28;20309;-72
2021/03/29 05:57:40;;;;;;;12.27;4.40;;;154.10;1996.80;;;;;;5118148;28;20027;-71
2021/03/29 06:00:31;;;;;;;7.28;3.17;;;154.20;1971.20;;;;;;5129254;27;20022;-73
2021/03/29 06:03:18;;;;;;;17.13;8.07;;;154.50;1971.20;;;;;;5139041;27;20138;-74
2021/03/29 06:05:44;;;;;;;16.00;7.65;;;179.30;1945.60;;;;;;5139121;27;20022;-72
2021/03/29 06:08:10;;;;;;;19.08;15.30;;;179.30;1945.60;;;;;;5139362;27;20384;-71
2021/03/29 06:10:37;;;;;;;11.02;5.80;;;179.50;1920.00;;;;;;5139187;27;20015;-72
2021/03/29 06:13:23;;;;;;;36.38;22.38;;;179.70;1868.80;;;;;;5138898;27;20046;-72
2021/03/29 06:16:00;;;;;;;12.73;6.78;;;180.00;1817.60;;;;;;5138613;27;20019;-71
2021/03/29 06:18:26;;;;;;;16.70;5.88;;;180.10;1792.00;;;;;;5139393;27;20019;-71
2021/03/29 06:21:12;;;;;;;12.30;5.28;;;204.80;1792.00;;;;;;5138559;27;20416;-73
2021/03/29 06:23:43;;;;;;;12.05;4.50;;;204.90;1843.20;;;;;;5139044;27;20027;-73
2021/03/29 06:26:31;;;;;;;10.98;4.70;;;204.90;1868.80;;;;;;5138709;27;20431;-73
2021/03/29 06:28:57;;;;;;;20.35;6.00;;;180.10;1868.80;;;;;;5138679;27;20220;-71
2021/03/29 06:31:26;;;;;;;14.98;5.20;;;180.10;1894.40;;;;;;5139242;27;20123;-71
2021/03/29 06:33:53;;;;;;;11.88;5.15;;;180.10;1920.00;;;;;;5120392;27;20026;-72
2021/03/29 06:36:35;;;;;;;10.55;5.00;;;204.90;1868.80;;;;;;5137979;27;20019;-73
2021/03/29 06:39:34;;;;;;;18.75;6.50;;;204.90;1817.60;;;;;;5139110;27;20026;-70
2021/03/29 06:42:00;;;;;;;11.88;6.13;;;205.10;1740.80;;;;;;5054851;28;20179;-74
2021/03/29 06:44:28;;;;;;;14.15;6.88;;;205.20;1766.40;;;;;;5054846;28;20438;-74
2021/03/29 06:47:32;;;;;;;15.30;5.65;;;205.40;1740.80;;;;;;5055034;28;20078;-73
2021/03/29 06:49:58;;;;;;;18.45;5.85;;;205.40;1766.40;;;;;;4976040;28;20054;-72
2021/03/29 06:52:25;;;;;;;27.67;5.88;;;205.30;1817.60;;;;;;4976137;28;20129;-77
2021/03/29 06:54:52;;;;;;;14.15;6.95;;;205.30;1817.60;;;;;;4976542;28;20038;-74
2021/03/29 06:57:28;;;;;;;29.13;7.50;;;205.50;1817.60;;;;;;4976242;28;20030;-77
2021/03/29 06:59:55;;;;;;;17.17;6.93;;;230.40;1817.60;;;;;;4976501;28;20072;-72
2021/03/29 07:02:38;;;;;;;55.28;6.97;;;230.60;1766.40;;;;;;4976229;28;20408;-73
2021/03/29 07:05:05;;;;;;;16.05;6.95;;;230.80;1740.80;;;;;;4976142;28;20324;-73
2021/03/29 07:07:31;;;;;;;20.65;6.80;;;230.80;1766.40;;;;;;4976445;28;20037;-73
2021/03/29 07:09:59;;;;;;;15.52;6.60;;;230.60;1740.80;;;;;;4975849;28;20038;-73
2021/03/29 07:12:31;;;;;;;17.05;7.55;;;230.70;1740.80;;;;;;4966926;28;20091;-73
2021/03/29 07:15:01;;;;;;;17.92;7.20;;;230.90;1740.80;;;;;;4957170;29;20340;-72
2021/03/29 07:17:30;;;;;;;14.80;7.38;;;231.10;1715.20;;;;;;4965298;28;20148;-72
2021/03/29 07:19:56;;;;;;;14.88;8.18;;;256.00;1715.20;;;;;;5015364;28;20423;-75
2021/03/29 07:22:23;;;;;;;20.02;7.82;;;256.30;1689.60;;;;;;5015057;28;20129;-71
2021/03/29 07:24:51;;;;;;;20.50;7.63;;;256.10;1715.20;;;;;;5014790;28;20033;-72
2021/03/29 07:27:19;;;;;;;32.72;8.57;;;256.30;1689.60;;;;;;5093364;28;20032;-73
2021/03/29 07:29:48;;;;;;;19.00;7.43;;;256.20;1689.60;;;;;;5096941;28;20016;-72
2021/03/29 07:32:28;;;;;;;24.00;9.30;;;256.30;1689.60;;;;;;5096933;28;20020;-73
2021/03/29 07:34:54;;;;;;;23.00;13.07;;;256.30;1638.40;;;;;;5097174;28;20028;-75
2021/03/29 07:37:41;;;;;;;33.05;18.77;;;256.50;1664.00;;;;;;5097158;28;20458;-73
2021/03/29 07:40:21;;;;;;;23.00;12.40;;;256.70;1638.40;;;;;;5097555;28;20111;-72
2021/03/29 07:42:51;;;;;;;21.58;8.85;;;256.70;1612.80;;;;;;5097399;28;20028;-72
2021/03/29 07:45:24;;;;;;;19.80;9.25;;;256.80;1612.80;;;;;;5097151;28;20034;-71
2021/03/29 07:47:58;;;;;;;15.52;8.98;;;281.60;1638.40;;;;;;5097141;28;20031;-74
2021/03/29 07:50:24;;;;;;;13.73;8.10;;;281.70;1587.20;;;;;;5096724;28;20020;-72
2021/03/29 07:53:08;;;;;;;14.52;8.15;;;281.70;1612.80;;;;;;5095921;28;20308;-72
2021/03/29 07:55:48;;;;;;;15.95;8.18;;;281.70;1587.20;;;;;;5062325;28;20029;-74
2021/03/29 07:58:16;;;;;;;16.15;9.13;;;281.70;1587.20;;;;;;5071917;28;20059;-73
2021/03/29 08:00:55;;;;;;;18.77;9.23;;;281.60;1587.20;;;;;;5073857;28;20031;-72
2021/03/29 08:03:23;;;;;;;15.83;8.67;;;281.60;1587.20;;;;;;5080534;28;20082;-73
2021/03/29 08:05:53;;;;;;;17.33;8.20;;;281.70;1587.20;;;;;;5080143;28;20038;-73
2021/03/29 08:08:28;;;;;;;17.30;9.32;;;281.80;1612.80;;;;;;5077289;28;20414;-73
2021/03/29 08:11:02;;;;;;;14.50;7.95;;;281.90;1587.20;;;;;;5080331;28;20352;-71
2021/03/29 08:13:53;;;;;;;14.30;7.70;;;281.90;1561.60;;;;;;5116429;28;20312;-72
2021/03/29 08:16:25;;;;;;;16.92;7.72;;;282.00;1612.80;;;;;;5120678;28;20073;-72
2021/03/29 08:19:17;;;;;;;14.60;8.35;;;282.10;1587.20;;;;;;5120815;28;20020;-72
2021/03/29 08:21:59;;;;;;;16.08;8.80;;;282.20;1587.20;;;;;;5119424;28;20024;-72
2021/03/29 08:24:29;;;;;;;17.92;9.32;;;282.20;1536.00;;;;;;5120277;28;20065;-71
2021/03/29 08:27:00;;;;;;;14.07;9.02;;;282.40;1612.80;;;;;;5120507;28;20032;-72
2021/03/29 08:29:36;;;;;;;15.82;8.57;;;282.50;1561.60;;;;;;5121017;28;20026;-71
2021/03/29 08:32:31;;;;;;;17.75;8.48;;;282.40;1536.00;;;;;;5120677;28;20020;-71
2021/03/29 08:35:11;;;;;;;16.35;9.48;;;282.40;1536.00;;;;;;5120122;28;20017;-73
2021/03/29 10:33:29;;;;;;;7.93;3.95;;;333.40;1356.80;;;;;;5114575;27;20457;-74
2021/03/29 10:35:55;;;;;;;8.25;4.43;;;359.00;1331.20;;;;;;5114823;28;20318;-74
2021/03/29 10:38:22;;;;;;;11.45;4.88;;;359.00;1331.20;;;;;;5114645;28;20031;-74
2021/03/29 10:40:48;;;;;;;7.25;3.80;;;358.90;1331.20;;;;;;5114749;28;20020;-74
2021/03/29 10:43:14;;;;;;;9.77;4.43;;;359.00;1305.60;;;;;;5115065;28;20027;-73
2021/03/29 10:45:40;;;;;;;9.30;3.90;;;358.90;1305.60;;;;;;5114433;28;20032;-74
2021/03/29 10:48:06;;;;;;;7.43;4.50;;;358.90;1382.40;;;;;;5114994;28;20055;-74
2021/03/29 10:50:32;;;;;;;7.57;4.20;;;359.10;1331.20;;;;;;5114651;28;20028;-74
2021/03/29 10:52:59;;;;;;;9.45;4.60;;;359.00;1305.60;;;;;;5114890;28;20111;-74
2021/03/29 10:55:25;;;;;;;12.52;4.00;;;359.20;1305.60;;;;;;5114724;28;20066;-74
2021/03/29 10:57:51;;;;;;;11.13;4.57;;;384.00;1305.60;;;;;;5114098;28;20027;-73
2021/03/29 11:00:18;;;;;;;9.82;4.60;;;384.00;1280.00;;;;;;5114044;28;20028;-75
2021/03/29 11:02:43;;;;;;;10.20;3.60;;;384.20;1280.00;;;;;;5114303;28;20027;-73
2021/03/29 11:05:10;;;;;;;10.40;4.82;;;384.30;1228.80;;;;;;5114082;28;20031;-73
2021/03/29 11:07:36;;;;;;;12.80;4.57;;;384.40;1280.00;;;;;;5114144;28;20101;-73
2021/03/29 11:10:03;;;;;;;8.05;4.03;;;384.30;1280.00;;;;;;5114402;28;20028;-74
2021/03/29 11:12:29;;;;;;;8.85;4.40;;;384.30;1331.20;;;;;;5113655;28;20051;-73
2021/03/29 11:14:54;;;;;;;6.90;3.85;;;384.40;1280.00;;;;;;5114146;28;20059;-74
2021/03/29 11:17:24;;;;;;;9.82;2.90;;;384.50;1280.00;;;;;;5113961;28;20031;-75
2021/03/29 11:19:50;;;;;;;7.70;3.55;;;384.50;1280.00;;;;;;5113269;28;20437;-73
2021/03/29 11:22:15;;;;;;;8.35;3.30;;;384.60;1254.40;;;;;;5113620;28;20034;-73
2021/03/29 11:24:41;;;;;;;5.28;3.00;;;384.80;1254.40;;;;;;5113673;28;20055;-72
2021/03/29 11:27:07;;;;;;;5.70;3.25;;;410.00;1254.40;;;;;;5111562;28;20032;-74
2021/03/29 11:29:33;;;;;;;10.80;3.60;;;410.40;1203.20;;;;;;5111807;28;20098;-73
2021/03/29 11:31:58;;;;;;;8.00;3.30;;;435.30;1177.60;;;;;;5112643;28;20048;-73
2021/03/29 11:34:24;;;;;;;7.90;3.47;;;435.40;1177.60;;;;;;5099903;28;20031;-73
2021/03/29 11:36:50;;;;;;;8.18;3.45;;;435.90;1152.00;;;;;;5090068;28;20028;-72
2021/03/29 11:39:16;;;;;;;10.07;3.95;;;460.80;1177.60;;;;;;5094280;28;20028;-72
2021/03/29 11:41:42;;;;;;;7.35;2.90;;;460.90;1152.00;;;;;;5097939;28;20051;-72
2021/03/29 11:44:08;;;;;;;5.88;2.95;;;436.10;1126.40;;;;;;5099322;28;20027;-73
2021/03/29 11:46:34;;;;;;;6.18;2.92;;;436.10;1152.00;;;;;;5099577;28;20031;-72
2021/03/29 11:48:59;;;;;;;8.38;2.97;;;460.80;1152.00;;;;;;5098983;28;20119;-72
2021/03/29 11:51:25;;;;;;;10.38;3.33;;;461.00;1152.00;;;;;;5099488;28;20364;-71
2021/03/29 11:53:51;;;;;;;11.73;3.20;;;436.10;1126.40;;;;;;5099128;28;20024;-70
2021/03/29 11:56:17;;;;;;;41.30;3.58;;;460.80;1152.00;;;;;;5099576;28;20020;-72
2021/03/29 11:58:46;;;;;;;17.92;3.58;;;461.10;1152.00;;;;;;5099951;28;20070;-72
2021/03/29 12:01:19;;;;;;;8.25;3.47;;;461.50;1126.40;;;;;;5099382;28;20058;-71
2021/03/29 12:03:53;;;;;;;7.60;3.92;;;461.60;1152.00;;;;;;5099915;28;20031;-71
2021/03/29 12:06:24;;;;;;;7.68;3.42;;;486.50;1100.80;;;;;;5099811;28;20020;-72
2021/03/29 12:08:56;;;;;;;8.85;3.30;;;487.20;1075.20;;;;;;5097990;28;20027;-72
2021/03/29 12:14:09;;;;;;;7.95;3.42;;;538.50;1024.00;;;;;;5098675;28;20094;-72
2021/03/29 12:16:39;;;;;;;9.20;3.10;;;588.90;998.40;;;;;;5099376;28;20020;-71
2021/03/29 12:19:05;;;;;;;10.43;3.90;;;563.30;1024.00;;;;;;5098913;28;20028;-72
2021/03/29 12:21:37;;;;;;;8.05;6.75;;;588.90;1024.00;;;;;;5098808;28;20028;-71
2021/03/29 12:24:14;;;;;;;9.35;7.22;;;589.50;972.80;;;;;;5098578;28;20346;-72
2021/03/29 12:26:42;;;;;;;8.80;6.47;;;665.90;870.40;;;;;;5098906;28;20059;-73
2021/03/29 12:29:11;;;;;;;9.40;7.28;;;691.70;819.20;;;;;;5098834;28;20024;-72
2021/03/29 12:31:39;;;;;;;9.98;6.28;;;717.30;819.20;;;;;;5098389;28;20381;-72
2021/03/29 12:34:06;;;;;;;7.47;5.82;;;793.60;819.20;;;;;;5096843;28;20040;-72
2021/03/29 12:36:42;;;;;;;10.70;6.53;;;768.00;819.20;;;;;;5093869;28;20038;-71
2021/03/29 12:39:32;;;;;;;7.47;6.65;;;742.40;819.20;;;;;;5094135;28;20031;-73
2021/03/29 12:42:00;;;;;;;9.25;6.50;;;768.40;793.60;;;;;;5099012;28;20024;-72
2021/03/29 12:44:27;;;;;;;15.45;7.13;;;794.10;793.60;;;;;;5097349;28;20450;-73
2021/03/29 12:46:56;;;;;;;9.20;7.03;;;819.70;768.00;;;;;;5080054;28;20428;-73
2021/03/29 12:49:22;;;;;;;8.70;6.38;;;845.60;742.40;;;;;;5098584;28;20035;-72
2021/03/29 12:51:57;;;;;;;8.40;6.55;;;820.10;742.40;;;;;;5098604;28;20063;-73
2021/03/29 12:54:34;;;;;;;6.85;6.13;;;819.30;742.40;;;;;;5098876;28;20053;-72
2021/03/29 12:57:01;;;;;;;21.20;7.30;;;794.40;768.00;;;;;;5097570;28;20396;-71
2021/03/29 12:59:29;;;;;;;11.80;6.45;;;793.80;768.00;;;;;;5097837;28;20415;-71
2021/03/29 13:01:56;;;;;;;9.23;5.60;;;819.50;742.40;;;;;;5097364;28;20032;-71
2021/03/29 13:04:26;;;;;;;6.40;5.38;;;845.50;742.40;;;;;;5095331;28;20032;-71
2021/03/29 13:12:20;;;;;;;5.80;5.07;;;844.80;742.40;;;;;;5094825;28;20020;-71
2021/03/29 13:15:05;;;;;;;11.02;5.18;;;819.70;716.80;;;;;;5096578;28;20019;-70
2021/03/29 13:17:37;;;;;;;6.05;5.20;;;845.10;716.80;;;;;;5095345;28;20430;-72
2021/03/29 13:20:05;;;;;;;7.20;5.47;;;844.80;742.40;;;;;;5097300;28;20020;-71
2021/03/29 13:22:31;;;;;;;5.63;5.05;;;870.60;691.20;;;;;;5097490;28;20417;-71
2021/03/29 13:24:57;;;;;;;7.50;5.50;;;896.30;665.60;;;;;;5097540;28;20035;-70
2021/03/29 13:27:23;;;;;;;7.40;4.70;;;871.20;691.20;;;;;;5097958;28;20111;-70
2021/03/29 13:29:49;;;;;;;6.13;5.07;;;871.20;665.60;;;;;;5097233;28;20102;-70
2021/03/29 13:32:15;;;;;;;6.78;4.47;;;870.60;691.20;;;;;;5097098;28;20390;-69
2021/03/29 13:34:42;;;;;;;9.75;5.40;;;896.20;665.60;;;;;;5096083;28;20123;-72
2021/03/29 13:37:08;;;;;;;7.17;4.40;;;896.30;665.60;;;;;;5096559;28;20027;-72
2021/03/29 13:39:36;;;;;;;5.97;4.30;;;896.10;665.60;;;;;;5097581;28;20024;-71
2021/03/29 13:42:07;;;;;;;7.10;5.70;;;896.10;665.60;;;;;;5095523;28;20422;-72
2021/03/29 13:44:38;;;;;;;7.60;4.55;;;871.20;665.60;;;;;;5097693;28;20035;-71
2021/03/29 13:47:05;;;;;;;5.28;4.20;;;896.10;665.60;;;;;;5094727;28;20016;-71
2021/03/29 13:49:33;;;;;;;9.00;4.18;;;896.90;640.00;;;;;;5095780;28;20081;-71
2021/03/29 13:52:00;;;;;;;19.75;6.90;;;947.90;640.00;;;;;;5095545;28;20373;-71
2021/03/29 13:54:26;;;;;;;8.90;5.35;;;973.00;640.00;;;;;;5093172;28;20028;-73
2021/03/29 13:56:52;;;;;;;9.30;5.32;;;947.50;640.00;;;;;;5096979;28;20031;-74
2021/03/29 13:59:19;;;;;;;8.27;4.35;;;948.00;614.40;;;;;;5095427;28;20028;-73
2021/03/29 14:01:45;;;;;;;8.43;4.57;;;973.00;640.00;;;;;;5093878;28;20020;-72
2021/03/29 14:04:15;;;;;;;13.30;6.28;;;973.10;640.00;;;;;;5096006;28;20040;-70
2021/03/29 14:06:42;;;;;;;6.82;4.70;;;973.70;614.40;;;;;;5093272;28;20090;-73
2021/03/29 14:09:13;;;;;;;5.95;4.50;;;999.20;614.40;;;;;;5096948;28;20333;-72
2021/03/29 14:11:38;;;;;;;7.47;4.70;;;947.60;640.00;;;;;;5096582;28;20161;-72
2021/03/29 14:14:05;;;;;;;11.50;5.22;;;922.40;665.60;;;;;;5097044;28;20111;-71
2021/03/29 14:16:32;;;;;;;8.82;4.93;;;896.50;665.60;;;;;;5095789;28;20028;-71
2021/03/29 14:18:58;;;;;;;5.85;4.50;;;870.80;691.20;;;;;;5096966;28;20425;-71
2021/03/29 14:21:25;;;;;;;7.43;4.05;;;844.80;716.80;;;;;;5096530;28;20035;-71
2021/03/29 14:23:52;;;;;;;7.47;4.33;;;819.50;691.20;;;;;;5097098;28;20433;-70
2021/03/29 14:26:18;;;;;;;6.78;4.47;;;742.90;768.00;;;;;;5096646;28;20111;-71
2021/03/29 14:28:43;;;;;;;6.15;3.15;;;717.10;793.60;;;;;;5097056;28;20402;-72
2021/03/29 14:31:10;;;;;;;10.18;3.38;;;691.40;768.00;;;;;;5096966;28;20035;-72